Time,TemperatureF,DewpointF,PressureIn,WindDirection,WindDirectionDegrees,WindSpeedMPH,WindSpeedGustMPH,Humidity,HourlyPrecipIn,Conditions,Clouds,dailyrainin,SoftwareType,DateUTC
2013-04-12 00:03:00,79.0,-99.9,29.98,East,90,16.0,22.0,-999,-99.99,,,-99.99,,2013-04-12 04:03:00,
2013-04-12 00:13:00,79.0,-99.9,29.98,East,90,16.0,22.0,-999,-99.99,,,-99.99,,2013-04-12 04:13:00,
2013-04-12 00:23:00,79.0,-99.9,29.98,East,90,16.0,22.0,-999,-99.99,,,-99.99,,2013-04-12 04:23:00,
2013-04-12 00:33:00,79.0,-99.9,29.98,East,90,16.0,20.0,-999,-99.99,,,-99.99,,2013-04-12 04:33:00,
2013-04-12 00:43:00,79.0,-99.9,29.98,East,90,16.0,20.0,-999,-99.99,,,-99.99,,2013-04-12 04:43:00,
2013-04-12 00:53:00,79.0,-99.9,29.98,East,90,16.0,20.0,-999,-99.99,,,-99.99,,2013-04-12 04:53:00,
2013-04-12 01:03:00,79.0,-99.9,29.97,East,90,16.0,18.0,-999,-99.99,,,-99.99,,2013-04-12 05:03:00,
2013-04-12 01:12:00,79.0,-99.9,29.97,East,90,16.0,18.0,-999,-99.99,,,-99.99,,2013-04-12 05:12:00,
2013-04-12 01:23:00,79.0,-99.9,29.97,East,90,16.0,18.0,-999,-99.99,,,-99.99,,2013-04-12 05:23:00,
2013-04-12 01:32:00,79.0,-99.9,29.96,ESE,110,13.0,18.0,-999,-99.99,,,-99.99,,2013-04-12 05:32:00,
2013-04-12 01:42:00,79.0,-99.9,29.96,ESE,110,13.0,18.0,-999,-99.99,,,-99.99,,2013-04-12 05:42:00,
2013-04-12 01:52:00,79.0,-99.9,29.96,ESE,110,13.0,18.0,-999,-99.99,,,-99.99,,2013-04-12 05:52:00,
2013-04-12 02:02:00,78.0,-99.9,29.95,ESE,110,11.0,13.0,-999,-99.99,,,-99.99,,2013-04-12 06:02:00,
2013-04-12 02:12:00,78.0,-99.9,29.95,ESE,110,11.0,13.0,-999,-99.99,,,-99.99,,2013-04-12 06:12:00,
2013-04-12 02:22:00,78.0,-99.9,29.95,ESE,110,11.0,13.0,-999,-99.99,,,-99.99,,2013-04-12 06:22:00,
2013-04-12 02:32:00,78.0,-99.9,29.94,ESE,110,9.0,13.0,-999,-99.99,,,-99.99,,2013-04-12 06:32:00,
2013-04-12 02:42:00,78.0,-99.9,29.94,ESE,110,9.0,13.0,-999,-99.99,,,-99.99,,2013-04-12 06:42:00,
2013-04-12 02:52:00,78.0,-99.9,29.94,ESE,110,9.0,13.0,-999,-99.99,,,-99.99,,2013-04-12 06:52:00,
2013-04-12 03:02:00,78.0,-99.9,29.93,East,100,11.0,13.0,-999,-99.99,,,-99.99,,2013-04-12 07:02:00,
2013-04-12 03:12:00,78.0,-99.9,29.93,East,100,11.0,13.0,-999,-99.99,,,-99.99,,2013-04-12 07:12:00,
2013-04-12 03:22:00,78.0,-99.9,29.93,East,100,11.0,13.0,-999,-99.99,,,-99.99,,2013-04-12 07:22:00,
2013-04-12 03:32:00,78.0,-99.9,29.93,ESE,110,11.0,13.0,-999,-99.99,,,-99.99,,2013-04-12 07:32:00,
2013-04-12 03:42:00,78.0,-99.9,29.93,ESE,110,11.0,13.0,-999,-99.99,,,-99.99,,2013-04-12 07:42:00,
2013-04-12 03:52:00,78.0,-99.9,29.93,ESE,110,11.0,13.0,-999,-99.99,,,-99.99,,2013-04-12 07:52:00,
2013-04-12 04:03:00,78.0,-99.9,29.92,ESE,110,9.0,11.0,-999,-99.99,,,-99.99,,2013-04-12 08:03:00,
2013-04-12 04:12:00,78.0,-99.9,29.92,ESE,110,9.0,11.0,-999,-99.99,,,-99.99,,2013-04-12 08:12:00,
2013-04-12 04:22:00,78.0,-99.9,29.92,ESE,110,9.0,11.0,-999,-99.99,,,-99.99,,2013-04-12 08:22:00,
2013-04-12 04:30:00,78.0,-99.9,29.93,East,100,13.0,16.0,-999,-99.99,,,-99.99,,2013-04-12 08:30:00,
2013-04-12 04:32:00,78.0,-99.9,29.92,ESE,110,11.0,13.0,-999,-99.99,,,-99.99,,2013-04-12 08:32:00,
2013-04-12 04:43:00,78.0,-99.9,29.92,ESE,110,11.0,13.0,-999,-99.99,,,-99.99,,2013-04-12 08:43:00,
2013-04-12 04:53:00,78.0,-99.9,29.92,ESE,110,11.0,13.0,-999,-99.99,,,-99.99,,2013-04-12 08:53:00,
2013-04-12 05:02:00,78.0,-99.9,29.93,East,100,13.0,16.0,-999,-99.99,,,-99.99,,2013-04-12 09:02:00,
2013-04-12 05:12:00,78.0,-99.9,29.93,East,100,13.0,16.0,-999,-99.99,,,-99.99,,2013-04-12 09:12:00,
2013-04-12 05:22:00,78.0,-99.9,29.93,East,100,13.0,16.0,-999,-99.99,,,-99.99,,2013-04-12 09:22:00,
2013-04-12 06:03:00,78.0,-99.9,29.94,SE,140,7.0,11.0,-999,-99.99,,,-99.99,,2013-04-12 10:03:00,
2013-04-12 06:13:00,78.0,-99.9,29.94,SE,140,7.0,11.0,-999,-99.99,,,-99.99,,2013-04-12 10:13:00,
2013-04-12 06:23:00,78.0,-99.9,29.94,SE,140,7.0,11.0,-999,-99.99,,,-99.99,,2013-04-12 10:23:00,
2013-04-12 06:34:00,78.0,-99.9,29.95,SE,130,9.0,13.0,-999,-99.99,,,-99.99,,2013-04-12 10:34:00,
2013-04-12 06:43:00,78.0,-99.9,29.95,SE,130,9.0,13.0,-999,-99.99,,,-99.99,,2013-04-12 10:43:00,
2013-04-12 06:53:00,78.0,-99.9,29.95,SE,130,9.0,13.0,-999,-99.99,,,-99.99,,2013-04-12 10:53:00,
2013-04-12 07:03:00,78.0,-99.9,29.96,ESE,120,7.0,9.0,-999,-99.99,,,-99.99,,2013-04-12 11:03:00,
2013-04-12 07:13:00,78.0,-99.9,29.96,ESE,120,7.0,9.0,-999,-99.99,,,-99.99,,2013-04-12 11:13:00,
2013-04-12 07:22:00,78.0,-99.9,29.96,ESE,120,7.0,9.0,-999,-99.99,,,-99.99,,2013-04-12 11:22:00,
2013-04-12 07:30:00,79.0,-99.9,29.98,ESE,110,9.0,13.0,-999,-99.99,,,-99.99,,2013-04-12 11:30:00,
2013-04-12 07:33:00,79.0,-99.9,29.97,ESE,120,9.0,11.0,-999,-99.99,,,-99.99,,2013-04-12 11:33:00,
2013-04-12 07:43:00,79.0,-99.9,29.97,ESE,120,9.0,11.0,-999,-99.99,,,-99.99,,2013-04-12 11:43:00,
2013-04-12 07:53:00,79.0,-99.9,29.97,ESE,120,9.0,11.0,-999,-99.99,,,-99.99,,2013-04-12 11:53:00,
2013-04-12 08:03:00,79.0,-99.9,29.98,ESE,110,9.0,13.0,-999,-99.99,,,-99.99,,2013-04-12 12:03:00,
2013-04-12 08:13:00,79.0,-99.9,29.98,ESE,110,9.0,13.0,-999,-99.99,,,-99.99,,2013-04-12 12:13:00,
2013-04-12 08:22:00,79.0,-99.9,29.98,ESE,110,9.0,13.0,-999,-99.99,,,-99.99,,2013-04-12 12:22:00,
2013-04-12 09:03:00,80.0,-99.9,29.99,East,100,13.0,16.0,-999,-99.99,,,-99.99,,2013-04-12 13:03:00,
2013-04-12 09:13:00,80.0,-99.9,29.99,East,100,13.0,16.0,-999,-99.99,,,-99.99,,2013-04-12 13:13:00,
2013-04-12 09:22:00,80.0,-99.9,29.99,East,100,13.0,16.0,-999,-99.99,,,-99.99,,2013-04-12 13:22:00,
2013-04-12 09:32:00,80.0,-99.9,30.00,East,90,16.0,18.0,-999,-99.99,,,-99.99,,2013-04-12 13:32:00,
2013-04-12 09:43:00,80.0,-99.9,30.00,East,90,16.0,18.0,-999,-99.99,,,-99.99,,2013-04-12 13:43:00,
2013-04-12 09:53:00,80.0,-99.9,30.00,East,90,16.0,18.0,-999,-99.99,,,-99.99,,2013-04-12 13:53:00,
2013-04-12 10:04:00,80.0,-99.9,30.00,East,80,18.0,22.0,-999,-99.99,,,-99.99,,2013-04-12 14:04:00,
2013-04-12 10:13:00,80.0,-99.9,30.00,East,80,18.0,22.0,-999,-99.99,,,-99.99,,2013-04-12 14:13:00,
2013-04-12 10:33:00,80.0,-99.9,30.01,East,80,16.0,20.0,-999,-99.99,,,-99.99,,2013-04-12 14:33:00,
2013-04-12 10:43:00,80.0,-99.9,30.01,East,80,16.0,20.0,-999,-99.99,,,-99.99,,2013-04-12 14:43:00,
2013-04-12 10:54:00,80.0,-99.9,30.01,East,80,16.0,20.0,-999,-99.99,,,-99.99,,2013-04-12 14:54:00,
2013-04-12 11:03:00,80.0,-99.9,30.00,East,80,18.0,20.0,-999,-99.99,,,-99.99,,2013-04-12 15:03:00,
2013-04-12 11:12:00,80.0,-99.9,30.00,East,80,18.0,20.0,-999,-99.99,,,-99.99,,2013-04-12 15:12:00,
2013-04-12 11:22:00,80.0,-99.9,30.00,East,80,18.0,20.0,-999,-99.99,,,-99.99,,2013-04-12 15:22:00,
2013-04-12 11:33:00,80.0,-99.9,30.00,East,80,18.0,20.0,-999,-99.99,,,-99.99,,2013-04-12 15:33:00,
2013-04-12 11:43:00,80.0,-99.9,30.00,East,80,18.0,20.0,-999,-99.99,,,-99.99,,2013-04-12 15:43:00,
2013-04-12 11:53:00,80.0,-99.9,30.00,East,80,18.0,20.0,-999,-99.99,,,-99.99,,2013-04-12 15:53:00,
2013-04-12 12:04:00,80.0,-99.9,29.99,East,80,18.0,22.0,-999,-99.99,,,-99.99,,2013-04-12 16:04:00,
2013-04-12 12:14:00,80.0,-99.9,29.99,East,80,18.0,22.0,-999,-99.99,,,-99.99,,2013-04-12 16:14:00,
2013-04-12 12:23:00,80.0,-99.9,29.99,East,80,18.0,22.0,-999,-99.99,,,-99.99,,2013-04-12 16:23:00,
2013-04-12 12:34:00,80.0,-99.9,29.98,ENE,70,16.0,20.0,-999,-99.99,,,-99.99,,2013-04-12 16:34:00,
2013-04-12 12:43:00,80.0,-99.9,29.98,ENE,70,16.0,20.0,-999,-99.99,,,-99.99,,2013-04-12 16:43:00,
2013-04-12 12:53:00,80.0,-99.9,29.98,ENE,70,16.0,20.0,-999,-99.99,,,-99.99,,2013-04-12 16:53:00,
2013-04-12 13:00:00,80.0,-99.9,29.97,ENE,70,18.0,20.0,-999,-99.99,,,-99.99,,2013-04-12 17:00:00,
2013-04-12 13:04:00,80.0,-99.9,29.98,ENE,70,18.0,22.0,-999,-99.99,,,-99.99,,2013-04-12 17:04:00,
2013-04-12 13:12:00,80.0,-99.9,29.98,ENE,70,18.0,22.0,-999,-99.99,,,-99.99,,2013-04-12 17:12:00,
2013-04-12 13:23:00,80.0,-99.9,29.98,ENE,70,18.0,22.0,-999,-99.99,,,-99.99,,2013-04-12 17:23:00,
2013-04-12 13:34:00,80.0,-99.9,29.97,ENE,70,18.0,20.0,-999,-99.99,,,-99.99,,2013-04-12 17:34:00,
2013-04-12 13:47:00,80.0,-99.9,29.97,ENE,70,18.0,20.0,-999,-99.99,,,-99.99,,2013-04-12 17:47:00,
2013-04-12 14:25:00,80.0,-99.9,29.96,ENE,70,18.0,20.0,-999,-99.99,,,-99.99,,2013-04-12 18:25:00,
2013-04-12 14:30:00,80.0,-99.9,29.93,ENE,70,18.0,22.0,-999,-99.99,,,-99.99,,2013-04-12 18:30:00,
2013-04-12 15:27:00,80.0,-99.9,29.93,ENE,70,18.0,22.0,-999,-99.99,,,-99.99,,2013-04-12 19:27:00,
2013-04-12 16:30:00,80.0,-99.9,29.92,East,80,18.0,22.0,-999,-99.99,,,-99.99,,2013-04-12 20:30:00,
2013-04-12 16:33:00,80.0,-99.9,29.92,East,80,18.0,25.0,-999,-99.99,,,-99.99,,2013-04-12 20:33:00,
2013-04-12 16:43:00,80.0,-99.9,29.92,East,80,18.0,25.0,-999,-99.99,,,-99.99,,2013-04-12 20:43:00,
2013-04-12 16:53:00,80.0,-99.9,29.92,East,80,18.0,25.0,-999,-99.99,,,-99.99,,2013-04-12 20:53:00,
2013-04-12 17:03:00,80.0,-99.9,29.92,East,80,18.0,22.0,-999,-99.99,,,-99.99,,2013-04-12 21:03:00,
2013-04-12 17:12:00,80.0,-99.9,29.92,East,80,18.0,22.0,-999,-99.99,,,-99.99,,2013-04-12 21:12:00,
2013-04-12 17:22:00,80.0,-99.9,29.92,East,80,18.0,22.0,-999,-99.99,,,-99.99,,2013-04-12 21:22:00,
2013-04-12 17:43:00,80.0,-99.9,29.92,East,80,18.0,22.0,-999,-99.99,,,-99.99,,2013-04-12 21:43:00,
2013-04-12 17:53:00,80.0,-99.9,29.92,East,80,18.0,22.0,-999,-99.99,,,-99.99,,2013-04-12 21:53:00,
2013-04-12 18:00:00,80.0,-99.9,29.93,East,80,18.0,22.0,-999,-99.99,,,-99.99,,2013-04-12 22:00:00,
2013-04-12 18:03:00,80.0,-99.9,29.93,East,80,20.0,22.0,-999,-99.99,,,-99.99,,2013-04-12 22:03:00,
2013-04-12 18:13:00,80.0,-99.9,29.93,East,80,20.0,22.0,-999,-99.99,,,-99.99,,2013-04-12 22:13:00,
2013-04-12 18:23:00,80.0,-99.9,29.93,East,80,20.0,22.0,-999,-99.99,,,-99.99,,2013-04-12 22:23:00,
2013-04-12 18:33:00,80.0,-99.9,29.93,East,80,18.0,22.0,-999,-99.99,,,-99.99,,2013-04-12 22:33:00,
2013-04-12 18:43:00,80.0,-99.9,29.93,East,80,18.0,22.0,-999,-99.99,,,-99.99,,2013-04-12 22:43:00,
2013-04-12 18:53:00,80.0,-99.9,29.93,East,80,18.0,22.0,-999,-99.99,,,-99.99,,2013-04-12 22:53:00,
2013-04-12 19:30:00,80.0,-99.9,29.96,East,80,20.0,22.0,-999,-99.99,,,-99.99,,2013-04-12 23:30:00,
2013-04-12 19:43:00,80.0,-99.9,29.95,East,80,18.0,22.0,-999,-99.99,,,-99.99,,2013-04-12 23:43:00,
2013-04-12 19:52:00,80.0,-99.9,29.95,East,80,18.0,22.0,-999,-99.99,,,-99.99,,2013-04-12 23:52:00,
2013-04-12 20:02:00,80.0,-99.9,29.96,East,80,20.0,22.0,-999,-99.99,,,-99.99,,2013-04-13 00:02:00,
2013-04-12 20:12:00,80.0,-99.9,29.96,East,80,20.0,22.0,-999,-99.99,,,-99.99,,2013-04-13 00:12:00,
2013-04-12 20:22:00,80.0,-99.9,29.96,East,80,20.0,22.0,-999,-99.99,,,-99.99,,2013-04-13 00:22:00,
2013-04-12 20:30:00,80.0,-99.9,29.97,East,80,18.0,20.0,-999,-99.99,,,-99.99,,2013-04-13 00:30:00,
2013-04-12 20:42:00,80.0,-99.9,29.96,East,80,18.0,22.0,-999,-99.99,,,-99.99,,2013-04-13 00:42:00,
2013-04-12 20:52:00,80.0,-99.9,29.96,East,80,18.0,22.0,-999,-99.99,,,-99.99,,2013-04-13 00:52:00,
2013-04-12 21:02:00,80.0,-99.9,29.97,East,80,18.0,20.0,-999,-99.99,,,-99.99,,2013-04-13 01:02:00,
2013-04-12 21:13:00,80.0,-99.9,29.97,East,80,18.0,20.0,-999,-99.99,,,-99.99,,2013-04-13 01:13:00,
2013-04-12 21:23:00,80.0,-99.9,29.97,East,80,18.0,20.0,-999,-99.99,,,-99.99,,2013-04-13 01:23:00,
2013-04-12 21:30:00,80.0,-99.9,29.98,East,80,18.0,22.0,-999,-99.99,,,-99.99,,2013-04-13 01:30:00,
2013-04-12 21:43:00,80.0,-99.9,29.98,East,80,18.0,22.0,-999,-99.99,,,-99.99,,2013-04-13 01:43:00,
2013-04-12 21:52:00,80.0,-99.9,29.98,East,80,18.0,22.0,-999,-99.99,,,-99.99,,2013-04-13 01:52:00,
2013-04-12 22:02:00,80.0,-99.9,29.98,East,80,18.0,22.0,-999,-99.99,,,-99.99,,2013-04-13 02:02:00,
2013-04-12 22:12:00,80.0,-99.9,29.98,East,80,18.0,22.0,-999,-99.99,,,-99.99,,2013-04-13 02:12:00,
2013-04-12 22:23:00,80.0,-99.9,29.98,East,80,18.0,22.0,-999,-99.99,,,-99.99,,2013-04-13 02:23:00,
2013-04-12 22:30:00,76.0,-99.9,30.00,East,80,18.0,22.0,-999,-99.99,,,-99.99,,2013-04-13 02:30:00,
2013-04-12 22:43:00,79.0,-99.9,29.98,East,80,18.0,22.0,-999,-99.99,,,-99.99,,2013-04-13 02:43:00,
2013-04-12 22:53:00,79.0,-99.9,29.98,East,80,18.0,22.0,-999,-99.99,,,-99.99,,2013-04-13 02:53:00,
2013-04-12 23:03:00,76.0,-99.9,30.00,East,80,18.0,22.0,-999,-99.99,,,-99.99,,2013-04-13 03:03:00,
2013-04-12 23:12:00,76.0,-99.9,30.00,East,80,18.0,22.0,-999,-99.99,,,-99.99,,2013-04-13 03:12:00,
2013-04-12 23:23:00,76.0,-99.9,30.00,East,80,18.0,22.0,-999,-99.99,,,-99.99,,2013-04-13 03:23:00,
2013-04-12 23:30:00,80.0,-99.9,29.98,East,90,18.0,22.0,-999,-99.99,,,-99.99,,2013-04-13 03:30:00,
2013-04-12 23:43:00,79.0,-99.9,29.99,East,90,13.0,18.0,-999,-99.99,,,-99.99,,2013-04-13 03:43:00,
2013-04-12 23:54:00,79.0,-99.9,29.99,East,90,13.0,18.0,-999,-99.99,,,-99.99,,2013-04-13 03:54:00,